Time;durP1;ratioP1;P1;durP2;ratioP2;P2;SDS_P1;SDS_P2;PMS_P1;PMS_P2;Temp;Humidity;BMP_temperature;BMP_pressure;BME280_temperature;BME280_humidity;BME280_pressure;Samples;Min_cycle;Max_cycle;Signal;HPM_P1;HPM_P2
2023/08/27 00:14:11;;;;;;;33.50;20.60;;;;;;;21.00;76.77;98109.06;436316;1254;108237;-43
2023/08/27 00:24:16;;;;;;;30.30;21.60;;;;;;;21.01;77.24;98139.42;436272;1248;99205;-43
2023/08/27 00:34:31;;;;;;;25.00;18.50;;;;;;;21.18;78.17;98171.23;435944;1252;247775;-43
2023/08/27 00:44:38;;;;;;;24.70;19.70;;;;;;;21.27;78.26;98180.36;436106;1253;99237;-44
2023/08/27 00:54:45;;;;;;;22.50;16.50;;;;;;;21.21;78.58;98152.20;436413;1252;111845;-43
2023/08/27 01:04:52;;;;;;;10.60;7.80;;;;;;;21.10;79.07;98113.58;436451;1255;107942;-43
2023/08/27 01:25:26;;;;;;;7.40;5.50;;;;;;;20.55;79.48;98071.17;435287;1254;106625;-42
2023/08/27 01:35:35;;;;;;;12.20;7.80;;;;;;;20.60;79.88;98064.13;435272;1254;99218;-43
2023/08/27 01:45:42;;;;;;;10.80;8.60;;;;;;;20.66;79.79;98077.40;435387;1254;111558;-43
2023/08/27 01:55:47;;;;;;;13.20;9.40;;;;;;;20.59;79.96;98085.92;435140;1254;107231;-44
2023/08/27 02:05:53;;;;;;;9.10;7.70;;;;;;;20.63;80.18;98093.35;435260;1251;99346;-43
2023/08/27 02:16:01;;;;;;;9.60;7.90;;;;;;;20.73;80.29;98088.94;435268;1255;109461;-43
2023/08/27 02:26:08;;;;;;;11.60;8.70;;;;;;;20.77;80.11;98052.05;435173;1250;99352;-42
2023/08/27 02:36:13;;;;;;;13.20;9.30;;;;;;;20.66;80.07;98046.88;435221;1254;111984;-42
2023/08/27 02:46:20;;;;;;;14.20;9.00;;;;;;;20.45;80.05;98033.52;435297;1251;107457;-43
2023/08/27 03:06:33;;;;;;;16.60;11.90;;;;;;;20.06;80.44;98024.10;435230;1254;107471;-41
2023/08/27 03:26:46;;;;;;;16.10;13.20;;;;;;;19.94;81.07;98018.91;435322;1254;111597;-42
2023/08/27 03:36:53;;;;;;;15.80;14.10;;;;;;;19.94;81.43;98045.29;435181;1254;108772;-43
2023/08/27 03:47:00;;;;;;;20.60;16.10;;;;;;;19.88;81.58;98049.17;435305;1254;99314;-43
2023/08/27 03:57:06;;;;;;;32.60;15.90;;;;;;;19.79;81.81;98059.33;435324;1254;107018;-44
2023/08/27 04:07:14;;;;;;;41.10;15.80;;;;;;;19.77;82.17;98063.54;435192;1254;99216;-44
2023/08/27 04:17:21;;;;;;;28.00;17.40;;;;;;;19.79;82.47;98061.44;435258;1254;112161;-43
2023/08/27 04:27:29;;;;;;;34.90;18.80;;;;;;;19.85;82.77;98062.70;435364;1251;108252;-44
2023/08/27 04:57:48;;;;;;;30.20;16.00;;;;;;;19.66;83.65;98035.68;435388;1254;99397;-43
2023/08/27 05:07:55;;;;;;;32.10;17.30;;;;;;;19.66;83.88;98021.58;435074;1250;111463;-44
2023/08/27 05:28:10;;;;;;;25.90;18.10;;;;;;;19.74;84.70;98003.47;435365;1254;98291;-44
2023/08/27 05:38:17;;;;;;;21.80;17.80;;;;;;;20.10;84.91;98014.04;435450;1255;105827;-43
2023/08/27 05:48:24;;;;;;;26.40;16.90;;;;;;;20.38;84.85;98013.21;435318;1254;99239;-42
2023/08/27 05:58:31;;;;;;;19.60;15.10;;;;;;;20.81;84.34;98022.62;435250;1254;111955;-42
2023/08/27 06:08:36;;;;;;;18.10;15.70;;;;;;;20.99;83.96;98019.49;435338;1253;107658;-43
2023/08/27 06:28:48;;;;;;;17.20;14.60;;;;;;;21.41;83.69;97992.20;435232;1256;107446;-42
2023/08/27 06:49:00;;;;;;;13.20;10.40;;;;;;;21.67;83.74;97966.97;435165;1257;111568;-43
2023/08/27 06:59:07;;;;;;;13.90;10.60;;;;;;;22.45;83.80;97958.20;435171;1256;109729;-42
2023/08/27 07:09:14;;;;;;;13.20;10.00;;;;;;;22.95;82.96;97976.61;435278;1251;99272;-45
2023/08/27 07:19:20;;;;;;;9.20;8.10;;;;;;;23.88;81.95;98011.19;435175;1256;107800;-41
2023/08/27 07:29:27;;;;;;;11.50;10.00;;;;;;;23.94;80.80;98012.58;435195;1252;99278;-41
2023/08/27 07:39:33;;;;;;;10.30;9.20;;;;;;;23.48;79.92;97997.38;435359;1256;112348;-42
2023/08/27 07:49:40;;;;;;;7.10;6.50;;;;;;;23.92;80.21;97997.37;435124;1256;108109;-42
2023/08/27 07:59:48;;;;;;;7.50;6.70;;;;;;;24.05;78.91;98009.80;435205;1256;99343;-42
2023/08/27 08:09:54;;;;;;;7.50;6.80;;;;;;;24.12;78.22;98002.69;435424;1256;109458;-42
2023/08/27 08:30:09;;;;;;;11.00;6.40;;;;;;;23.10;77.84;98002.00;435197;1255;112399;-42
2023/08/27 08:40:18;;;;;;;7.90;7.10;;;;;;;23.34;77.71;97977.73;435680;1256;106294;-43
2023/08/27 08:50:25;;;;;;;7.90;7.10;;;;;;;23.18;77.73;97966.90;435208;1256;99250;-42
2023/08/27 09:00:33;;;;;;;8.20;7.40;;;;;;;22.88;77.37;97981.51;435171;1256;109442;-44
2023/08/27 09:10:40;;;;;;;8.20;7.40;;;;;;;22.94;77.73;97964.55;434906;1251;99231;-43
2023/08/27 09:20:50;;;;;;;8.90;8.00;;;;;;;23.26;77.06;97944.84;435265;1255;112262;-43
2023/08/27 09:41:12;;;;;;;10.60;7.70;;;;;;;24.04;75.92;97927.93;435315;1256;99240;-43
2023/08/27 10:11:39;;;;;;;6.10;5.60;;;;;;;25.39;72.61;97925.70;435291;1256;112527;-41
2023/08/27 10:21:46;;;;;;;8.60;6.40;;;;;;;24.99;71.13;97917.27;435374;1253;108757;-42
2023/08/27 10:31:54;;;;;;;6.90;6.20;;;;;;;24.63;70.96;97927.28;435323;1253;99246;-41
2023/08/27 10:42:00;;;;;;;7.20;5.60;;;;;;;24.68;70.45;97929.66;435065;1256;107707;-45
2023/08/27 10:52:23;;;;;;;7.00;6.20;;;;;;;24.70;70.20;97937.86;435605;1256;99228;-41
2023/08/27 11:02:50;;;;;;;7.60;6.30;;;;;;;24.82;70.10;97927.85;435280;1256;112275;-44
2023/08/27 11:23:09;;;;;;;6.00;5.50;;;;;;;24.88;69.59;97901.55;435073;1253;99214;-42
2023/08/27 11:33:22;;;;;;;7.40;6.50;;;;;;;24.96;69.14;97907.27;435101;1253;107659;-41
2023/08/27 11:43:27;;;;;;;9.20;5.90;;;;;;;25.10;69.06;97919.63;435041;1255;98315;-41
2023/08/27 11:53:35;;;;;;;7.50;6.70;;;;;;;25.20;68.81;97903.98;435367;1251;112140;-42
2023/08/27 12:44:10;;;;;;;6.50;5.80;;;;;;;25.38;67.30;97857.00;435238;1256;111402;-44
2023/08/27 12:54:17;;;;;;;7.10;6.40;;;;;;;25.28;66.98;97860.75;435124;1256;109117;-43
2023/08/27 13:04:25;;;;;;;7.70;6.50;;;;;;;25.64;66.89;97851.91;435383;1253;97951;-42
2023/08/27 13:14:31;;;;;;;6.60;6.00;;;;;;;26.01;66.03;97838.10;435223;1256;107937;-42
2023/08/27 13:34:43;;;;;;;6.40;5.80;;;;;;;25.74;65.13;97830.98;435234;1256;113990;-41
2023/08/27 13:54:57;;;;;;;6.10;5.50;;;;;;;25.84;65.25;97824.76;435269;1253;99266;-43
2023/08/27 14:05:04;;;;;;;6.70;5.80;;;;;;;25.98;64.55;97811.01;435285;1257;108357;-43
2023/08/27 14:25:18;;;;;;;6.10;5.60;;;;;;;26.04;64.30;97793.80;435256;1253;111205;-41
2023/08/27 15:36:01;;;;;;;6.50;6.00;;;;;;;26.07;63.28;97778.72;434939;1265;99232;-44
2023/08/27 15:46:07;;;;;;;7.70;6.40;;;;;;;25.84;63.31;97774.15;435190;1251;108807;-43
2023/08/27 15:56:15;;;;;;;8.60;6.60;;;;;;;25.83;63.63;97772.95;435144;1256;99243;-44
2023/08/27 16:36:39;;;;;;;12.50;8.30;;;;;;;25.33;64.76;97753.67;435177;1257;108533;-44
2023/08/27 16:46:48;;;;;;;8.30;7.40;;;;;;;25.17;65.10;97752.24;435163;1254;98015;-41
2023/08/27 16:56:53;;;;;;;8.60;7.80;;;;;;;25.04;65.51;97737.67;435219;1256;111271;-44
2023/08/27 17:07:00;;;;;;;8.50;7.10;;;;;;;25.04;66.18;97723.54;435096;1256;108268;-41
2023/08/27 17:17:08;;;;;;;10.90;7.70;;;;;;;24.91;66.73;97737.77;435296;1252;99266;-44
2023/08/27 17:27:14;;;;;;;11.90;8.50;;;;;;;24.70;67.43;97749.77;435160;1257;109420;-44
2023/08/27 17:37:22;;;;;;;9.80;8.90;;;;;;;24.33;67.84;97756.65;435116;1257;99730;-45
2023/08/27 17:47:31;;;;;;;9.80;8.90;;;;;;;24.09;68.67;97758.66;435693;1256;111664;-41
2023/08/27 17:57:37;;;;;;;11.70;10.30;;;;;;;23.90;69.14;97765.42;435358;1257;108183;-42
2023/08/27 18:07:44;;;;;;;13.10;11.70;;;;;;;23.77;69.98;97763.14;435245;1256;98029;-44
2023/08/27 18:17:50;;;;;;;12.30;10.60;;;;;;;23.51;70.29;97773.00;435173;1258;106711;-42
2023/08/27 18:27:57;;;;;;;14.70;11.20;;;;;;;23.27;70.86;97781.75;435248;1251;99225;-42
2023/08/27 18:38:01;;;;;;;11.20;9.70;;;;;;;23.11;71.60;97782.30;435136;1257;111873;-42
2023/08/27 18:48:09;;;;;;;11.00;10.00;;;;;;;23.06;72.03;97777.22;435209;1264;108478;-45
2023/08/27 18:58:16;;;;;;;15.40;12.80;;;;;;;22.94;72.56;97770.95;435269;1251;99239;-51
2023/08/27 19:08:22;;;;;;;15.90;13.90;;;;;;;22.82;72.85;97770.67;435366;1251;108553;-43
2023/08/27 19:18:29;;;;;;;18.50;13.40;;;;;;;22.62;72.91;97774.77;435273;1257;99250;-42
2023/08/27 19:28:35;;;;;;;;;;;;;;;22.59;73.70;97775.90;435251;1251;112060;-41
2023/08/27 20:09:00;;;;;;;21.80;14.00;;;;;;;22.45;75.04;97779.13;435128;1264;99324;-44
2023/08/27 20:19:07;;;;;;;18.20;12.80;;;;;;;22.33;75.29;97787.42;435067;1257;110559;-43
2023/08/27 20:29:12;;;;;;;12.50;9.70;;;;;;;21.95;75.64;97790.86;435113;1265;108645;-43
2023/08/27 20:49:24;;;;;;;11.80;9.00;;;;;;;21.44;76.76;97802.02;435143;1256;108514;-42
2023/08/27 20:59:31;;;;;;;12.90;11.20;;;;;;;21.28;77.35;97804.98;435287;1251;99359;-43
2023/08/27 21:09:37;;;;;;;14.60;11.80;;;;;;;21.16;77.69;97803.40;435207;1257;111020;-43
2023/08/27 21:29:51;;;;;;;17.70;15.10;;;;;;;20.91;78.90;97802.52;435222;1251;99267;-42
2023/08/27 21:39:57;;;;;;;17.50;15.40;;;;;;;20.80;79.14;97820.09;435267;1251;107874;-42
2023/08/27 22:00:12;;;;;;;27.20;19.10;;;;;;;20.77;79.92;97810.04;435450;1254;111767;-43
2023/08/27 22:10:18;;;;;;;28.60;20.20;;;;;;;20.78;80.04;97784.65;435315;1254;105658;-42
2023/08/27 22:20:24;;;;;;;22.10;19.30;;;;;;;20.71;80.15;97831.79;435296;1254;99785;-43
2023/08/27 22:30:29;;;;;;;19.10;15.70;;;;;;;20.66;80.81;97862.41;435315;1254;105600;-41
2023/08/27 22:40:38;;;;;;;15.10;12.80;;;;;;;20.17;81.32;97894.84;435198;1250;98003;-42
2023/08/27 22:50:46;;;;;;;15.10;10.50;;;;;;;19.61;82.05;97873.33;435102;1253;112026;-41
2023/08/27 23:10:56;;;;;;;4.90;3.90;;;;;;;19.20;82.56;97941.99;435349;1254;99251;-45
2023/08/27 23:21:03;;;;;;;2.80;1.00;;;;;;;18.82;83.86;97955.39;435023;1254;108284;-43
2023/08/27 23:31:11;;;;;;;3.90;1.30;;;;;;;18.35;84.10;97967.14;435259;1254;99301;-44
2023/08/27 23:41:18;;;;;;;0.50;0.50;;;;;;;18.28;84.31;98003.90;435193;1253;111693;-44
2023/08/27 23:51:24;;;;;;;4.90;0.90;;;;;;;18.27;84.37;98017.94;437158;1254;108883;-43
